UCFL

Tamchy Airport

Tamchy, Kyrgyzstan
TAF UCFL 220133Z 2203/2212 14003G08MPS 9999 BKN030CB OVC100 TEMPO 2203/2209 30007G12MPS 2000 SHRA BKN020CB
Issued Valid From Valid To
Sep-22 @ 01:33 UTC
(2 hours ago)
Sep-22 @ 03:00 UTC
(26 minutes ago)
Sep-22 @ 12:00 UTC
(in 9 hours)
to
to
TAF UCFL 220133Z 2203/2212 14003G08MPS 9999 BKN030CB OVC100 TEMPO 2203/2209 30007G12MPS 2000 SHRA BKN020CB
Issued Sep-22 @ 01:33 UTC
(2 hours ago)
Valid From Sep-22 @ 03:00 UTC
(26 minutes ago)
Valid To Sep-22 @ 12:00 UTC
(in 9 hours)
-
-